Terminal Aerodrome Forecast
Issued by NWS Charleston, WV

Current Version | Previous Version | Text Only | Print | Product List | Glossary Off
Versions: 1 2 3 4 5 6 7 8 9 10 11 12 13 14 15 16 17 18 19 20 21 22 23 24 25

000
FTUS41 KRLX 280200 AAA
TAFEKN
TAF AMD
KEKN 280227Z 2802/2824 VRB04KT 5SM BR FEW025 OVC080
     FM280400 34004KT 5SM BR BKN025
     FM280600 00000KT 2SM BR BKN025
     FM280800 00000KT 1SM BR BKN020
     FM281200 00000KT 3SM BR BKN020
     FM281300 00000KT P6SM SCT045=

USA.gov is the U.S. government's official web portal to all federal, state and local government web resources and services.